createdAt,value
2023-03-25T00:08:44.757Z,9.10
2023-03-25T00:18:48.212Z,9.04
2023-03-25T00:28:50.152Z,8.91
2023-03-25T00:38:52.247Z,8.80
2023-03-25T00:48:55.829Z,8.59
2023-03-25T00:58:58.855Z,8.51
2023-03-25T01:09:05.027Z,8.40
2023-03-25T01:19:07.097Z,8.27
2023-03-25T01:29:09.357Z,8.14
2023-03-25T01:39:11.308Z,7.99
2023-03-25T01:49:23.996Z,7.80
2023-03-25T01:59:28.861Z,7.66
2023-03-25T02:09:30.876Z,7.61
2023-03-25T02:20:14.058Z,7.48
2023-03-25T02:30:49.159Z,7.29
2023-03-25T02:41:04.824Z,7.10
2023-03-25T02:51:23.097Z,7.04
2023-03-25T03:01:27.175Z,7.02
2023-03-25T03:11:58.913Z,6.81
2023-03-25T03:22:42.922Z,6.60
2023-03-25T03:32:57.944Z,6.53
2023-03-25T03:43:09.038Z,6.38
2023-03-25T03:53:18.685Z,6.19
2023-03-25T04:03:34.923Z,6.17
2023-03-25T04:13:49.813Z,6.31
2023-03-25T04:23:52.126Z,6.11
2023-03-25T04:33:55.068Z,6.13
2023-03-25T04:43:58.598Z,6.16
2023-03-25T04:54:01.176Z,6.24
2023-03-25T05:04:05.696Z,6.51
2023-03-25T05:14:09.929Z,6.71
2023-03-25T05:24:13.715Z,6.85
2023-03-25T05:34:17.594Z,7.00
2023-03-25T05:44:19.818Z,7.05
2023-03-25T05:54:28.763Z,7.26
2023-03-25T06:04:34.167Z,7.41
2023-03-25T06:14:38.188Z,7.53
2023-03-25T06:24:41.578Z,7.82
2023-03-25T06:34:43.714Z,8.28
2023-03-25T06:44:49.225Z,8.51
2023-03-25T06:54:51.176Z,8.67
2023-03-25T07:04:53.240Z,8.76
2023-03-25T07:15:00.380Z,9.25
2023-03-25T07:25:03.274Z,10.31
2023-03-25T07:35:05.960Z,10.73
2023-03-25T07:45:08.590Z,10.59
2023-03-25T07:55:10.758Z,11.64
2023-03-25T08:05:12.799Z,11.66
2023-03-25T08:15:14.806Z,12.65
2023-03-25T08:25:16.887Z,12.94
2023-03-25T08:35:21.648Z,14.00
2023-03-25T08:45:23.615Z,13.87
2023-03-25T08:55:26.186Z,15.27
2023-03-25T09:05:28.239Z,13.44
2023-03-25T09:15:30.974Z,13.07
2023-03-25T09:25:33.471Z,13.25
2023-03-25T09:35:41.762Z,13.52
2023-03-25T09:45:47.442Z,13.35
2023-03-25T09:55:58.286Z,13.34
2023-03-25T10:06:14.315Z,14.01
2023-03-25T10:16:36.142Z,14.75
2023-03-25T10:27:03.909Z,15.62
2023-03-25T10:37:14.805Z,15.02
2023-03-25T10:47:21.313Z,14.30
2023-03-25T10:57:32.682Z,14.29
2023-03-25T11:07:43.998Z,14.58
2023-03-25T11:17:48.075Z,15.10
2023-03-25T11:28:05.599Z,15.08
2023-03-25T11:38:17.091Z,14.38
2023-03-25T11:48:30.960Z,13.85
2023-03-25T11:58:39.586Z,13.75
2023-03-25T12:08:49.089Z,14.05
2023-03-25T12:19:23.317Z,13.97
2023-03-25T12:30:19.396Z,13.75
2023-03-25T12:40:51.597Z,13.47
2023-03-25T12:51:00.047Z,12.37
2023-03-25T13:01:23.902Z,12.46
2023-03-25T13:11:33.090Z,11.96
2023-03-25T13:21:46.782Z,11.65
2023-03-25T13:31:50.875Z,12.00
2023-03-25T13:42:01.253Z,12.33
2023-03-25T13:52:04.147Z,12.41
2023-03-25T14:02:32.564Z,12.52
2023-03-25T14:12:43.316Z,13.27
2023-03-25T14:22:45.494Z,13.20
2023-03-25T14:32:47.957Z,12.82
2023-03-25T14:43:00.627Z,11.93
2023-03-25T14:53:07.091Z,10.62
2023-03-25T15:03:19.845Z,9.46
2023-03-25T15:13:27.718Z,9.02
2023-03-25T15:23:48.306Z,8.84
2023-03-25T15:34:03.791Z,8.71
2023-03-25T15:44:36.934Z,8.57
2023-03-25T15:55:13.100Z,8.67
2023-03-25T16:05:17.786Z,8.54
2023-03-25T16:15:28.839Z,8.32
2023-03-25T16:25:38.445Z,8.11
2023-03-25T16:36:02.437Z,8.08
2023-03-25T16:46:09.738Z,7.96
2023-03-25T16:56:15.716Z,7.96
2023-03-25T17:06:47.080Z,7.74
2023-03-25T17:16:53.048Z,7.67
2023-03-25T17:27:09.139Z,7.76
2023-03-25T17:37:19.803Z,7.99
2023-03-25T17:47:24.223Z,8.18
2023-03-25T17:57:27.017Z,8.21
2023-03-25T18:07:34.269Z,8.29
2023-03-25T18:17:45.151Z,8.39
2023-03-25T18:27:53.131Z,8.58
2023-03-25T18:37:58.240Z,8.71
2023-03-25T18:48:03.767Z,8.31
2023-03-25T18:58:06.619Z,8.39
2023-03-25T19:08:18.523Z,7.93
2023-03-25T19:18:26.202Z,7.61
2023-03-25T19:28:29.321Z,7.19
2023-03-25T19:38:41.920Z,6.96
2023-03-25T19:48:47.394Z,6.85
2023-03-25T19:58:50.289Z,6.81
2023-03-25T20:09:06.345Z,6.43
2023-03-25T20:19:21.996Z,6.22
2023-03-25T20:29:33.183Z,6.16
2023-03-25T20:39:46.273Z,5.95
2023-03-25T20:49:49.285Z,5.85
2023-03-25T20:59:58.852Z,5.75
2023-03-25T21:10:20.848Z,5.71
2023-03-25T21:20:30.402Z,5.73
2023-03-25T21:30:33.259Z,5.68
2023-03-25T21:40:40.015Z,5.64
2023-03-25T21:50:42.513Z,5.59
2023-03-25T22:00:46.384Z,5.68
2023-03-25T22:11:05.683Z,6.02
2023-03-25T22:21:23.599Z,6.36
2023-03-25T22:31:31.284Z,6.55
2023-03-25T22:41:33.509Z,6.61
2023-03-25T22:51:35.635Z,6.41
2023-03-25T23:01:38.396Z,6.53
2023-03-25T23:11:44.546Z,6.71
2023-03-25T23:21:57.907Z,6.52
2023-03-25T23:32:06.146Z,6.41
2023-03-25T23:42:08.615Z,6.34
2023-03-25T23:52:13.814Z,6.17
